Карта >>>.

 
------------ UKKM ------------------
Hostomel, Ukraine (UKKM) 50-36-01N 030-11-37E
Dec 06, 2021 - 04:30 AM EST / 2021.12.06 0930 UTC
Wind: from the E (090 degrees) at 4 MPH (4 KT) (direction variable):0
Visibility: less than 1 mile:0
Sky conditions: obscured
Weather: fog
Temperature: 32 F (0 C)
Dew Point: 30 F (-1 C)
Relative Humidity: 92%
Pressure (altimeter): 29.85 in. Hg (1011 hPa)
ob: UKKM 060930Z 09002MPS 050V130 0550 0450NE R15/0450N FG VV001 00/M01 Q1011 TEMPO 0300 FG VV001
cycle: 9
 
------------ UKBB ------------------
Boryspil, Ukraine (UKBB) 50-20N 030-58E 122M
Dec 06, 2021 - 04:30 AM EST / 2021.12.06 0930 UTC
Wind: from the ESE (120 degrees) at 9 MPH (8 KT):0
Visibility: less than 1 mile:0
Sky conditions: overcast
Weather: light rain, snow; mist
Temperature: 32 F (0 C)
Windchill: 24 F (-4 C):1
Dew Point: 32 F (0 C)
Relative Humidity: 100%
Pressure (altimeter): 29.88 in. Hg (1012 hPa)
ob: UKBB 060930Z 12004MPS 1300 1000W R18L/1600N R18R/1300N -RASN BR SCT002 OVC004 00/M00 Q1012 NOSIG
cycle: 9
 
------------ UKLR ------------------
Rivne, Ukraine (UKLR) 50-35N 026-08E
Dec 06, 2021 - 04:30 AM EST / 2021.12.06 0930 UTC
Wind: from the ESE (110 degrees) at 7 MPH (6 KT):0
Visibility: less than 1 mile:0
Sky conditions: overcast
Weather: mist
Temperature: 30 F (-1 C)
Windchill: 23 F (-5 C):1
Dew Point: 30 F (-1 C)
Relative Humidity: 100%
Pressure (altimeter): 29.80 in. Hg (1009 hPa)
ob: UKLR 060930Z 11003MPS 1200 BR OVC002 M01/M01 Q1009 NOSIG
cycle: 9
 
------------ UKLL ------------------
L'Viv, Ukraine (UKLL) 49-49N 023-57E 323M
Dec 06, 2021 - 04:30 AM EST / 2021.12.06 0930 UTC
Wind: from the NE (050 degrees) at 4 MPH (4 KT) (direction variable):0
Visibility: 2 mile(s):0
Sky conditions: mostly cloudy
Weather: light snow showers, rain; mist; Cumulonimbus clouds observed
Temperature: 33 F (1 C)
Dew Point: 32 F (0 C)
Relative Humidity: 93%
Pressure (altimeter): 29.74 in. Hg (1007 hPa)
ob: UKLL 060930Z 05002MPS 360V100 4700 -SHSNRA BR BKN003 BKN016CB 01/00 Q1007 NOSIG
cycle: 9
 
------------ UKLU ------------------
Uzhhorod, Ukraine (UKLU) 48-38-05N 022-15-53E
Dec 06, 2021 - 04:30 AM EST / 2021.12.06 0930 UTC
Wind: Calm:0
Visibility: 2 mile(s):0
Sky conditions: overcast
Weather: light rain; mist
Temperature: 35 F (2 C)
Dew Point: 35 F (2 C)
Relative Humidity: 100%
Pressure (altimeter): 29.71 in. Hg (1006 hPa)
ob: UKLU 060930Z 00000MPS 3400 -RA BR OVC019 02/02 Q1006 NOSIG
cycle: 9
 
------------ UKOO ------------------
Odesa, Ukraine (UKOO) 46-26N 030-46E 42M
Dec 06, 2021 - 04:30 AM EST / 2021.12.06 0930 UTC
Wind: from the SSE (160 degrees) at 16 MPH (14 KT):0
Visibility: greater than 7 mile(s):0
Sky conditions: overcast
Temperature: 51 F (11 C)
Dew Point: 51 F (11 C)
Relative Humidity: 100%
Pressure (altimeter): 29.80 in. Hg (1009 hPa)
ob: UKOO 060930Z 16007MPS 9999 BKN007 OVC012 11/11 Q1009 NOSIG
cycle: 9
 
------------ UNOO ------------------
Omsk, Russia (UNOO) 54-58N 073-18E
Dec 06, 2021 - 04:30 AM EST / 2021.12.06 0930 UTC
Wind: from the SSW (200 degrees) at 9 MPH (8 KT):0
Visibility: 2 mile(s):0
Sky conditions: mostly cloudy
Weather: light snow showers; mist; Cumulonimbus clouds observed
Temperature: 26 F (-3 C)
Windchill: 17 F (-8 C):1
Dew Point: 26 F (-3 C)
Relative Humidity: 100%
Pressure (altimeter): 29.94 in. Hg (1014 hPa)
ob: UNOO 060930Z 20004MPS 3400 -SHSN BR BKN006 BKN033CB M03/M03 Q1014 R25/590140 NOSIG RMK OBST OBSC QFE752
cycle: 9
cycle: 9

Рекомендую хостинг от vultr.com
Разврат - это секс, в котором ты не участвуешь.
2021-12-06_11-43-59 / 34.207.247.69 / 0.8463